Time;durP1;ratioP1;P1;durP2;ratioP2;P2;SDS_P1;SDS_P2;PMS_P1;PMS_P2;Temp;Humidity;BMP_temperature;BMP_pressure;BME280_temperature;BME280_humidity;BME280_pressure;Samples;Min_cycle;Max_cycle;Signal;HPM_P1;HPM_P2
2023/06/07 00:01:08;;;;;;;;;;;21.20;54.50;;;;;;10327515;28;785;-70
2023/06/07 00:06:05;;;;;;;;;;;21.20;54.50;;;;;;10326118;28;882;-70
2023/06/07 00:11:00;;;;;;;;;;;21.20;54.50;;;;;;10325936;28;1964;-70
2023/06/07 00:15:56;;;;;;;;;;;21.20;54.60;;;;;;10326492;28;999;-70
2023/06/07 00:20:52;;;;;;;;;;;21.20;54.60;;;;;;10326383;28;790;-70
2023/06/07 00:25:47;;;;;;;;;;;21.20;54.60;;;;;;10325695;28;1722;-70
2023/06/07 00:30:42;;;;;;;;;;;21.20;54.60;;;;;;10326056;28;1961;-70
2023/06/07 00:35:38;;;;;;;;;;;21.20;54.60;;;;;;10325551;28;1144;-70
2023/06/07 00:40:33;;;;;;;;;;;21.20;54.60;;;;;;10325976;28;873;-70
2023/06/07 00:45:28;;;;;;;;;;;21.20;54.60;;;;;;10325911;28;822;-70
2023/06/07 00:50:24;;;;;;;;;;;21.20;54.50;;;;;;10325845;28;1973;-70
2023/06/07 00:55:19;;;;;;;;;;;21.20;55.10;;;;;;10325663;28;983;-70
2023/06/07 01:00:15;;;;;;;;;;;21.20;54.60;;;;;;10324993;28;842;-70
2023/06/07 01:05:11;;;;;;;;;;;21.20;54.60;;;;;;10324277;28;869;-70
2023/06/07 01:10:06;;;;;;;;;;;21.20;54.60;;;;;;10325420;28;1906;-70
2023/06/07 01:15:02;;;;;;;;;;;21.20;54.60;;;;;;10324722;28;857;-70
2023/06/07 01:19:58;;;;;;;;;;;21.20;54.60;;;;;;10329404;28;849;-70
2023/06/07 01:24:55;;;;;;;;;;;21.20;54.60;;;;;;10332553;28;826;-70
2023/06/07 01:29:51;;;;;;;;;;;21.20;54.60;;;;;;10332353;28;1902;-70
2023/06/07 01:34:46;;;;;;;;;;;21.20;54.50;;;;;;10332130;28;1264;-70
2023/06/07 01:39:42;;;;;;;;;;;21.20;54.60;;;;;;10331651;28;961;-70
2023/06/07 01:44:37;;;;;;;;;;;21.10;54.50;;;;;;10331565;28;770;-70
2023/06/07 01:49:33;;;;;;;;;;;21.20;54.60;;;;;;10331888;28;1913;-70
2023/06/07 01:54:28;;;;;;;;;;;21.10;54.60;;;;;;10331166;28;811;-70
2023/06/07 01:59:23;;;;;;;;;;;21.10;54.50;;;;;;10330950;28;969;-70
2023/06/07 02:04:19;;;;;;;;;;;21.10;54.60;;;;;;10331016;28;976;-70
2023/06/07 02:09:15;;;;;;;;;;;21.10;54.50;;;;;;10330516;28;1969;-70
2023/06/07 02:14:10;;;;;;;;;;;21.10;54.50;;;;;;10330549;28;790;-70
2023/06/07 02:19:06;;;;;;;;;;;21.10;54.40;;;;;;10330308;28;909;-70
2023/06/07 02:24:02;;;;;;;;;;;21.10;54.40;;;;;;10330704;28;889;-70
2023/06/07 02:28:57;;;;;;;;;;;21.10;54.50;;;;;;10329373;28;1906;-70
2023/06/07 02:33:53;;;;;;;;;;;21.10;54.50;;;;;;10329742;28;1152;-70
2023/06/07 02:38:48;;;;;;;;;;;21.10;54.50;;;;;;10329701;28;963;-70
2023/06/07 02:43:43;;;;;;;;;;;21.10;54.50;;;;;;10329984;28;923;-70
2023/06/07 02:48:39;;;;;;;;;;;21.10;54.50;;;;;;10329262;28;1914;-70
2023/06/07 02:53:35;;;;;;;;;;;21.10;54.50;;;;;;10329031;28;782;-70
2023/06/07 02:58:31;;;;;;;;;;;21.10;54.60;;;;;;10328788;28;850;-70
2023/06/07 03:03:26;;;;;;;;;;;21.00;54.50;;;;;;10329178;28;877;-70
2023/06/07 03:08:22;;;;;;;;;;;21.00;54.50;;;;;;10329307;28;1965;-70
2023/06/07 03:13:17;;;;;;;;;;;21.00;54.50;;;;;;10328739;28;951;-70
2023/06/07 03:18:15;;;;;;;;;;;21.10;54.60;;;;;;10328614;28;855;-70
2023/06/07 03:23:10;;;;;;;;;;;21.00;54.50;;;;;;10327792;28;892;-70
2023/06/07 03:28:06;;;;;;;;;;;21.00;54.50;;;;;;10327477;28;1906;-70
2023/06/07 03:33:02;;;;;;;;;;;21.00;54.50;;;;;;10327253;28;907;-70
2023/06/07 03:37:57;;;;;;;;;;;21.00;54.40;;;;;;10327519;28;1736;-70
2023/06/07 03:42:52;;;;;;;;;;;21.00;54.50;;;;;;10327513;28;803;-70
2023/06/07 03:47:48;;;;;;;;;;;21.00;54.50;;;;;;10326717;28;1975;-70
2023/06/07 03:52:43;;;;;;;;;;;21.00;54.50;;;;;;10326642;28;822;-70
2023/06/07 03:57:39;;;;;;;;;;;21.00;54.50;;;;;;10326435;28;885;-70
2023/06/07 04:02:34;;;;;;;;;;;21.00;54.50;;;;;;10326852;28;791;-70
2023/06/07 04:07:30;;;;;;;;;;;21.00;54.50;;;;;;10326028;28;1910;-70
2023/06/07 04:12:25;;;;;;;;;;;21.00;54.60;;;;;;10326084;28;799;-70
2023/06/07 04:17:20;;;;;;;;;;;21.00;54.50;;;;;;10326516;28;900;-70
2023/06/07 04:22:16;;;;;;;;;;;21.00;54.50;;;;;;10326067;28;806;-70
2023/06/07 04:27:13;;;;;;;;;;;21.00;54.50;;;;;;10325033;28;1965;-70
2023/06/07 04:32:09;;;;;;;;;;;21.00;54.50;;;;;;10325511;28;1004;-70
2023/06/07 04:37:05;;;;;;;;;;;20.90;54.30;;;;;;10326482;28;1109;-70
2023/06/07 04:42:03;;;;;;;;;;;21.00;54.40;;;;;;10325205;28;835;-70
2023/06/07 04:46:59;;;;;;;;;;;20.90;54.40;;;;;;10325157;28;1918;-70
2023/06/07 04:51:55;;;;;;;;;;;21.00;54.50;;;;;;10325761;28;1051;-70
2023/06/07 04:56:50;;;;;;;;;;;21.00;54.50;;;;;;10333455;28;784;-69
2023/06/07 05:01:47;;;;;;;;;;;21.00;54.50;;;;;;10333308;28;770;-70
2023/06/07 05:06:42;;;;;;;;;;;21.00;54.50;;;;;;10333728;28;1911;-70
2023/06/07 05:11:37;;;;;;;;;;;21.00;54.60;;;;;;10332923;28;851;-70
2023/06/07 05:16:33;;;;;;;;;;;21.00;54.50;;;;;;10333340;28;769;-70
2023/06/07 05:21:28;;;;;;;;;;;21.00;54.40;;;;;;10333128;28;814;-70
2023/06/07 05:26:23;;;;;;;;;;;21.10;54.50;;;;;;10332348;28;948;-70
2023/06/07 05:31:19;;;;;;;;;;;21.00;54.50;;;;;;10332053;28;1969;-68
2023/06/07 05:36:14;;;;;;;;;;;21.00;54.60;;;;;;10332420;28;1143;-70
2023/06/07 05:41:10;;;;;;;;;;;21.10;54.60;;;;;;10331857;28;814;-70
2023/06/07 05:46:05;;;;;;;;;;;21.10;54.50;;;;;;10331498;28;809;-71
2023/06/07 05:51:01;;;;;;;;;;;21.10;54.60;;;;;;10331286;28;1985;-70
2023/06/07 05:55:56;;;;;;;;;;;21.10;54.60;;;;;;10331404;28;759;-70
2023/06/07 06:00:53;;;;;;;;;;;21.10;54.60;;;;;;10331043;28;766;-69
2023/06/07 06:05:48;;;;;;;;;;;21.10;54.60;;;;;;10330492;28;989;-70
2023/06/07 06:10:46;;;;;;;;;;;21.10;54.60;;;;;;10331276;28;1989;-70
2023/06/07 06:15:41;;;;;;;;;;;21.10;54.70;;;;;;10331097;28;917;-70
2023/06/07 06:20:38;;;;;;;;;;;21.10;54.60;;;;;;10330922;28;874;-71
2023/06/07 06:25:33;;;;;;;;;;;21.10;54.60;;;;;;10330169;28;930;-70
2023/06/07 06:30:29;;;;;;;;;;;21.10;54.60;;;;;;10331548;28;1961;-71
2023/06/07 06:35:25;;;;;;;;;;;21.10;54.50;;;;;;10370595;28;1344;-70
2023/06/07 06:40:20;;;;;;;;;;;21.10;54.60;;;;;;10370148;28;948;-69
2023/06/07 06:45:15;;;;;;;;;;;21.10;54.60;;;;;;10370939;28;818;-69
2023/06/07 06:50:11;;;;;;;;;;;21.10;54.70;;;;;;10370443;28;1976;-71
2023/06/07 06:55:06;;;;;;;;;;;21.10;54.70;;;;;;10370260;28;763;-70
2023/06/07 07:00:11;;;;;;;;;;;21.10;54.60;;;;;;10361876;28;1191;-71
2023/06/07 07:05:06;;;;;;;;;;;21.10;54.60;;;;;;10329474;28;830;-72
2023/06/07 07:10:01;;;;;;;;;;;21.10;54.50;;;;;;10328481;28;1910;-71
2023/06/07 07:14:57;;;;;;;;;;;21.10;54.50;;;;;;10328194;28;859;-69
2023/06/07 07:19:53;;;;;;;;;;;21.10;54.40;;;;;;10328503;28;874;-72
2023/06/07 10:48:45;;;;;;;;;;;21.00;55.80;;;;;;10497374;22;1914;-71
2023/06/07 10:53:40;;;;;;;;;;;21.00;55.80;;;;;;10246850;28;871;-69
2023/06/07 10:58:36;;;;;;;;;;;21.00;55.90;;;;;;10247259;28;999;-69
2023/06/07 11:03:31;;;;;;;;;;;20.90;55.80;;;;;;10248156;28;1535;-69
2023/06/07 11:08:27;;;;;;;;;;;20.90;55.80;;;;;;10248087;28;1953;-69
2023/06/07 11:13:23;;;;;;;;;;;20.90;55.90;;;;;;10247125;28;969;-69
2023/06/07 11:18:18;;;;;;;;;;;20.90;55.90;;;;;;10247585;28;884;-69
2023/06/07 11:23:13;;;;;;;;;;;20.90;56.00;;;;;;10246798;28;868;-73
2023/06/07 11:28:09;;;;;;;;;;;20.90;56.00;;;;;;10246530;28;1958;-75
2023/06/07 11:33:04;;;;;;;;;;;20.90;56.00;;;;;;10246413;28;1011;-75
2023/06/07 11:38:00;;;;;;;;;;;20.90;56.20;;;;;;10246305;28;857;-75
2023/06/07 11:42:55;;;;;;;;;;;21.00;55.80;;;;;;10246590;28;879;-75
2023/06/07 11:47:50;;;;;;;;;;;20.90;55.60;;;;;;10245711;28;1981;-75
2023/06/07 11:52:46;;;;;;;;;;;21.00;55.60;;;;;;10246300;28;881;-74
2023/06/07 11:57:41;;;;;;;;;;;20.90;55.40;;;;;;10245533;28;743;-74
2023/06/07 12:02:39;;;;;;;;;;;21.00;55.50;;;;;;10245144;28;825;-74
2023/06/07 12:07:35;;;;;;;;;;;21.00;55.40;;;;;;10245072;28;1898;-74
2023/06/07 12:12:31;;;;;;;;;;;21.00;55.30;;;;;;10245961;28;1521;-75
2023/06/07 12:17:26;;;;;;;;;;;20.90;55.30;;;;;;10245140;28;925;-76
2023/06/07 12:22:22;;;;;;;;;;;20.90;55.20;;;;;;10245328;28;877;-75
2023/06/07 12:27:18;;;;;;;;;;;20.90;55.10;;;;;;10244419;28;1906;-74
2023/06/07 12:32:13;;;;;;;;;;;21.00;55.20;;;;;;10244473;28;909;-74
2023/06/07 12:37:09;;;;;;;;;;;21.00;55.10;;;;;;10244262;28;813;-75
2023/06/07 12:42:06;;;;;;;;;;;21.00;55.10;;;;;;10244028;28;891;-76
2023/06/07 12:47:02;;;;;;;;;;;21.00;55.60;;;;;;10244663;28;1356;-75
2023/06/07 12:51:57;;;;;;;;;;;21.00;55.00;;;;;;10243888;28;1895;-74
2023/06/07 12:56:53;;;;;;;;;;;21.00;55.00;;;;;;10243912;28;826;-74
2023/06/07 13:01:48;;;;;;;;;;;21.00;54.90;;;;;;10243797;28;881;-74
2023/06/07 13:06:43;;;;;;;;;;;21.00;55.30;;;;;;10244342;28;806;-73
2023/06/07 13:11:39;;;;;;;;;;;21.00;55.10;;;;;;10243876;28;1906;-74
2023/06/07 13:16:34;;;;;;;;;;;21.10;55.10;;;;;;10249049;28;1119;-69
2023/06/07 13:21:30;;;;;;;;;;;21.10;55.30;;;;;;10251394;28;836;-69
2023/06/07 13:26:25;;;;;;;;;;;21.00;55.10;;;;;;10250832;28;838;-70
2023/06/07 13:31:21;;;;;;;;;;;21.00;55.30;;;;;;10250722;28;1902;-69
2023/06/07 13:36:16;;;;;;;;;;;21.00;55.30;;;;;;10250161;28;935;-69
2023/06/07 13:41:11;;;;;;;;;;;21.10;55.50;;;;;;10250126;28;794;-69
2023/06/07 13:46:07;;;;;;;;;;;21.00;55.40;;;;;;10249307;28;1214;-70
2023/06/07 13:51:04;;;;;;;;;;;21.10;55.40;;;;;;10249998;28;1974;-69
2023/06/07 13:55:59;;;;;;;;;;;21.10;55.30;;;;;;10249175;28;883;-69
2023/06/07 14:00:54;;;;;;;;;;;21.10;55.20;;;;;;10249752;28;805;-69
2023/06/07 14:05:50;;;;;;;;;;;21.20;55.30;;;;;;10249538;28;947;-68
2023/06/07 14:10:46;;;;;;;;;;;21.20;55.30;;;;;;10249335;28;1957;-69
2023/06/07 14:15:41;;;;;;;;;;;21.10;55.30;;;;;;10249404;28;828;-69
2023/06/07 14:20:37;;;;;;;;;;;21.10;55.40;;;;;;10248982;28;1003;-71
2023/06/07 14:25:32;;;;;;;;;;;21.10;55.40;;;;;;10249529;28;941;-68
2023/06/07 14:30:28;;;;;;;;;;;21.20;55.50;;;;;;10249257;28;1902;-69
2023/06/07 14:35:23;;;;;;;;;;;21.30;55.40;;;;;;10249054;28;893;-69
2023/06/07 14:40:18;;;;;;;;;;;21.30;55.40;;;;;;10248961;28;934;-69
2023/06/07 14:45:14;;;;;;;;;;;21.20;55.50;;;;;;10247608;28;1500;-69
2023/06/07 14:50:09;;;;;;;;;;;21.20;55.60;;;;;;10247912;28;1906;-69
2023/06/07 14:55:05;;;;;;;;;;;21.20;55.60;;;;;;10247709;28;853;-68
2023/06/07 15:00:04;;;;;;;;;;;21.20;55.60;;;;;;10248106;28;804;-69
2023/06/07 15:04:59;;;;;;;;;;;21.20;55.60;;;;;;10247465;28;890;-69
2023/06/07 15:09:55;;;;;;;;;;;21.20;55.70;;;;;;10247580;28;1975;-69
2023/06/07 15:14:50;;;;;;;;;;;21.20;55.70;;;;;;10246952;28;864;-69
2023/06/07 15:19:46;;;;;;;;;;;21.20;55.60;;;;;;10245790;28;1005;-69
2023/06/07 15:24:43;;;;;;;;;;;21.20;55.60;;;;;;10246559;28;844;-69
2023/06/07 15:29:38;;;;;;;;;;;21.20;55.60;;;;;;10246230;28;1965;-70
2023/06/07 15:34:34;;;;;;;;;;;21.20;55.70;;;;;;10246525;28;828;-69
2023/06/07 15:39:29;;;;;;;;;;;21.10;55.70;;;;;;10245751;28;884;-69
2023/06/07 15:44:24;;;;;;;;;;;21.10;55.70;;;;;;10246340;28;932;-69
2023/06/07 15:49:20;;;;;;;;;;;21.10;55.70;;;;;;10244797;28;1902;-69
2023/06/07 15:54:15;;;;;;;;;;;21.10;56.00;;;;;;10246040;28;925;-70
2023/06/07 15:59:11;;;;;;;;;;;21.10;55.70;;;;;;10244810;28;1022;-69
2023/06/07 16:04:06;;;;;;;;;;;21.10;55.80;;;;;;10246088;28;1557;-70
2023/06/07 16:09:07;;;;;;;;;;;21.10;56.00;;;;;;10244272;28;1969;-69
2023/06/07 16:14:03;;;;;;;;;;;21.10;55.90;;;;;;10244751;28;882;-69
2023/06/07 16:18:58;;;;;;;;;;;21.10;56.10;;;;;;10244010;28;1044;-70
2023/06/07 16:23:53;;;;;;;;;;;21.10;56.00;;;;;;10244731;28;866;-71
2023/06/07 16:28:49;;;;;;;;;;;21.10;56.00;;;;;;10244607;28;1906;-71
2023/06/07 16:33:44;;;;;;;;;;;21.10;55.90;;;;;;10244466;28;794;-71
2023/06/07 16:38:40;;;;;;;;;;;21.10;55.90;;;;;;10243771;28;915;-70
2023/06/07 16:43:35;;;;;;;;;;;21.10;56.00;;;;;;10242614;28;984;-68
2023/06/07 16:48:30;;;;;;;;;;;21.10;56.00;;;;;;10241950;28;1985;-69
2023/06/07 16:53:26;;;;;;;;;;;21.10;56.10;;;;;;10244323;28;906;-69
2023/06/07 16:58:23;;;;;;;;;;;21.10;56.10;;;;;;10244457;28;1017;-69
2023/06/07 17:03:18;;;;;;;;;;;21.10;56.20;;;;;;10244783;28;884;-69
2023/06/07 17:08:13;;;;;;;;;;;21.10;56.20;;;;;;10244167;28;1910;-69
2023/06/07 17:13:09;;;;;;;;;;;21.10;56.20;;;;;;10243580;28;814;-69
2023/06/07 17:18:04;;;;;;;;;;;21.10;56.30;;;;;;10243630;28;933;-69
2023/06/07 17:23:00;;;;;;;;;;;21.10;56.40;;;;;;10243908;28;901;-69
2023/06/07 17:27:55;;;;;;;;;;;21.10;56.30;;;;;;10244049;28;1965;-69
2023/06/07 17:32:50;;;;;;;;;;;21.10;56.30;;;;;;10243298;28;969;-69
2023/06/07 17:37:46;;;;;;;;;;;21.00;56.30;;;;;;10243003;28;897;-69
2023/06/07 17:42:42;;;;;;;;;;;21.00;56.40;;;;;;10243162;28;825;-69
2023/06/07 17:47:38;;;;;;;;;;;21.10;56.70;;;;;;10243015;28;1973;-67
2023/06/07 17:52:34;;;;;;;;;;;21.00;56.50;;;;;;10242272;28;1093;-69
2023/06/07 17:57:30;;;;;;;;;;;21.00;56.50;;;;;;10243601;28;961;-69
2023/06/07 18:02:25;;;;;;;;;;;21.00;56.60;;;;;;10247918;28;817;-69
2023/06/07 18:07:20;;;;;;;;;;;21.00;56.70;;;;;;10249709;28;1911;-69
2023/06/07 18:12:16;;;;;;;;;;;21.00;56.70;;;;;;10249945;28;808;-69
2023/06/07 18:17:11;;;;;;;;;;;21.00;56.90;;;;;;10248270;28;1233;-69
2023/06/07 18:22:07;;;;;;;;;;;21.00;56.90;;;;;;10249097;28;783;-68
2023/06/07 18:27:03;;;;;;;;;;;21.00;57.50;;;;;;10249475;28;942;-70
2023/06/07 18:31:58;;;;;;;;;;;21.00;56.90;;;;;;10248823;28;1902;-70
2023/06/07 18:36:53;;;;;;;;;;;21.00;57.00;;;;;;10248701;28;845;-70
2023/06/07 18:41:49;;;;;;;;;;;21.00;56.90;;;;;;10249084;28;935;-70
2023/06/07 18:46:44;;;;;;;;;;;21.00;56.90;;;;;;10248763;28;1485;-70
2023/06/07 18:51:39;;;;;;;;;;;21.00;56.90;;;;;;10247887;28;1914;-70
2023/06/07 18:56:36;;;;;;;;;;;21.00;56.80;;;;;;10247926;28;770;-70
2023/06/07 19:01:32;;;;;;;;;;;21.00;56.80;;;;;;10247738;28;782;-70
2023/06/07 19:06:28;;;;;;;;;;;21.00;56.80;;;;;;10248112;28;817;-69
2023/06/07 19:11:23;;;;;;;;;;;21.00;56.80;;;;;;10246975;28;1965;-70
2023/06/07 19:16:19;;;;;;;;;;;21.00;56.90;;;;;;10247136;28;907;-70
2023/06/07 19:21:15;;;;;;;;;;;21.00;56.90;;;;;;10247364;28;943;-69
2023/06/07 19:26:10;;;;;;;;;;;21.00;56.80;;;;;;10246718;28;883;-70
2023/06/07 19:31:06;;;;;;;;;;;21.00;56.90;;;;;;10246533;28;1969;-70
2023/06/07 19:36:01;;;;;;;;;;;21.00;56.90;;;;;;10247040;28;822;-70
2023/06/07 19:40:57;;;;;;;;;;;21.00;56.90;;;;;;10246565;28;841;-66
2023/06/07 19:45:52;;;;;;;;;;;21.00;57.00;;;;;;10246300;28;1326;-67
2023/06/07 19:50:47;;;;;;;;;;;21.00;57.10;;;;;;10245911;28;1914;-70
2023/06/07 19:55:43;;;;;;;;;;;21.00;57.20;;;;;;10245700;28;881;-70
2023/06/07 20:00:38;;;;;;;;;;;21.00;57.30;;;;;;10245482;28;968;-69
2023/06/07 20:05:33;;;;;;;;;;;21.00;57.30;;;;;;10246217;28;901;-69
2023/06/07 20:10:29;;;;;;;;;;;20.90;57.20;;;;;;10245103;28;1887;-69
2023/06/07 20:15:26;;;;;;;;;;;20.90;57.10;;;;;;10244914;28;873;-69
2023/06/07 20:20:21;;;;;;;;;;;20.90;57.10;;;;;;10244996;28;786;-69
2023/06/07 20:25:16;;;;;;;;;;;20.90;57.10;;;;;;10244578;28;761;-69
2023/06/07 20:30:12;;;;;;;;;;;20.90;57.10;;;;;;10244486;28;1914;-69
2023/06/07 20:35:07;;;;;;;;;;;20.90;57.10;;;;;;10244389;28;882;-69
2023/06/07 20:40:05;;;;;;;;;;;20.90;57.10;;;;;;10244334;28;966;-70
2023/06/07 20:45:00;;;;;;;;;;;21.00;57.30;;;;;;10243396;28;1229;-70
2023/06/07 20:49:56;;;;;;;;;;;21.00;57.30;;;;;;10243947;28;1922;-70
2023/06/07 20:54:51;;;;;;;;;;;20.90;57.20;;;;;;10243419;28;838;-70
2023/06/07 20:59:46;;;;;;;;;;;20.90;57.90;;;;;;10243909;28;818;-70
2023/06/07 21:04:42;;;;;;;;;;;21.00;57.30;;;;;;10245571;28;952;-70
2023/06/07 21:09:37;;;;;;;;;;;20.90;57.10;;;;;;10243646;28;1906;-70
2023/06/07 21:14:32;;;;;;;;;;;20.90;57.10;;;;;;10243600;28;810;-70
2023/06/07 21:19:28;;;;;;;;;;;21.00;57.30;;;;;;10243971;28;960;-70
2023/06/07 21:24:23;;;;;;;;;;;20.90;57.10;;;;;;10243363;28;956;-70
2023/06/07 21:29:19;;;;;;;;;;;21.00;57.10;;;;;;10243233;28;1973;-69
2023/06/07 21:34:15;;;;;;;;;;;21.00;57.60;;;;;;10244306;28;927;-68
2023/06/07 21:39:10;;;;;;;;;;;20.90;57.40;;;;;;10251501;28;833;-69
2023/06/07 21:44:05;;;;;;;;;;;21.00;57.60;;;;;;10250772;28;820;-73
2023/06/07 21:49:01;;;;;;;;;;;20.90;57.50;;;;;;10250112;28;1985;-73
2023/06/07 21:53:56;;;;;;;;;;;21.00;57.60;;;;;;10250999;28;856;-73
2023/06/07 21:58:51;;;;;;;;;;;20.90;57.40;;;;;;10250760;28;860;-73
2023/06/07 22:03:47;;;;;;;;;;;21.00;57.40;;;;;;10250657;28;869;-73
2023/06/07 22:08:42;;;;;;;;;;;21.00;57.40;;;;;;10249765;28;1965;-73
2023/06/07 22:13:39;;;;;;;;;;;20.90;57.20;;;;;;10250230;28;861;-74
2023/06/07 22:18:35;;;;;;;;;;;21.00;57.20;;;;;;10249382;28;899;-73
2023/06/07 22:23:30;;;;;;;;;;;21.00;57.10;;;;;;10249824;28;830;-73
2023/06/07 22:28:29;;;;;;;;;;;20.90;57.50;;;;;;10249727;28;1910;-73
2023/06/07 22:33:24;;;;;;;;;;;21.00;56.90;;;;;;10248826;28;907;-73
2023/06/07 22:38:20;;;;;;;;;;;20.90;56.80;;;;;;10249325;28;771;-73
2023/06/07 22:43:15;;;;;;;;;;;20.90;56.80;;;;;;10248520;28;932;-73
2023/06/07 22:48:11;;;;;;;;;;;21.00;56.80;;;;;;10247013;28;1985;-73
2023/06/07 22:53:06;;;;;;;;;;;20.90;56.70;;;;;;10248184;28;862;-73
2023/06/07 22:58:01;;;;;;;;;;;20.90;56.70;;;;;;10248607;28;782;-73
2023/06/07 23:02:57;;;;;;;;;;;20.90;56.60;;;;;;10247748;28;771;-74
2023/06/07 23:07:52;;;;;;;;;;;20.90;56.60;;;;;;10248185;28;1959;-74
2023/06/07 23:12:48;;;;;;;;;;;20.90;56.60;;;;;;10247669;28;852;-73
2023/06/07 23:17:44;;;;;;;;;;;20.90;56.50;;;;;;10247998;28;825;-73
2023/06/07 23:22:43;;;;;;;;;;;20.90;56.50;;;;;;10247629;28;785;-73
2023/06/07 23:27:38;;;;;;;;;;;20.90;56.50;;;;;;10246726;28;1898;-73
2023/06/07 23:32:33;;;;;;;;;;;20.90;56.40;;;;;;10247207;28;869;-74
2023/06/07 23:37:30;;;;;;;;;;;20.90;56.40;;;;;;10245787;28;863;-74
2023/06/07 23:42:26;;;;;;;;;;;20.90;56.40;;;;;;10246817;28;911;-73
2023/06/07 23:47:21;;;;;;;;;;;20.90;56.30;;;;;;10246392;28;1256;-73
2023/06/07 23:52:18;;;;;;;;;;;20.90;56.40;;;;;;10245254;28;1887;-74
2023/06/07 23:57:14;;;;;;;;;;;20.90;56.30;;;;;;10245830;28;852;-74
